Terminal Aerodrome Forecast
Issued by NWS Twin Cities, MN

Home | Current Version | Previous Version | Graphics & Text | Print | Product List | Glossary On
Versions: 1 2 3 4 5 6 7 8 9 10 11 12 13 14 15 16
945
FTUS43 KMPX 270149 AAA
TAFSTC
TAF AMD
KSTC 270149Z 2702/2724 VRB03KT P6SM FEW150
     FM271000 VRB03KT 6SM -SHRA OVC060
     FM271900 02005KT 5SM -TSRA BR SCT025 OVC040CB
     FM272300 03006KT P6SM OVC040=

USA.gov is the U.S. government's official web portal to all federal, state and local government web resources and services.